Canovanas, PR

6:37 AM AST on December 19, 2014 (GMT -0400)
King | Change Station
CLOSE
Current Station
Airport
Location: St. Thomas,
Elevation: 23 ft
Nearby Weather Stations

Elev 23 ft 18.34 °N, 64.97 °W | Updated 2 hours ago

Mostly Cloudy
Mostly Cloudy
77 °F
Feels Like 77 °F
N
7
Wind Variable Wind from East

Today
High -- | Low -- °F
--% Chance of Precip.
Yesterday
High -- | Low -- °F
Precip. -- in
6:49 AM 5:51 PM
Waning Crescent, 8% visible
Pressure 29.92 in
Visibility 10.0 miles
Clouds Scattered Clouds 3200 ft
Scattered Clouds 4100 ft
Mostly Cloudy 8500 ft
Dew Point 67 °F
Humidity 71%
Rainfall 0.00 in
Snow Depth Not available.
UV 0 out of 12
Pollen Not available.
Air Quality Not available.
Flu Activity Not available.
METAR TIST 190753Z 10006KT 10SM SCT032 SCT041 BKN085 25/19 A2992 RMK AO2 SLP132 T02500194

More Conditions Fewer Conditions

Pressure 29.92 in
Visibility 10.0 miles
Clouds Scattered Clouds 3200 ft
Scattered Clouds 4100 ft
Mostly Cloudy 8500 ft
Dew Point 67 °F
Humidity 71%
Rainfall 0.00 in
Snow Depth Not available.
UV 0 out of 12
Pollen Not available.
Air Quality Not available.
Flu Activity Not available.
METAR TIST 190753Z 10006KT 10SM SCT032 SCT041 BKN085 25/19 A2992 RMK AO2 SLP132 T02500194

More Conditions Fewer Conditions

10-Day Weather Forecast

Almanac

Astronomy

Dec. 19, 2014 Rise Set
Actual Time
Civil Twilight
Nautical Twilight
Astronomical Twilight
Moon
Length of Visible Light
Length of Day
Tomorrow will be .
, % of the Moon is Illuminated

Today's Extremes

State Highs State Lows

Community

WunderPhotos

Upload Photos

1,778,966 photos uploaded!

WunderBlogs® & News

Nearby

Air Quality

  Air Quality AQ Index Pollutant
Not available.

Snow Depth

Station Depth Elevation

Earthquake Activity

City Distance Mag. Time & Date
Minimum magnitude displayed is 2.5.

Coastal Water Temperatures

Place Temperature

Nearby Weather Stations